Airport View

Enter AWOS ICAO identifier for current METAR.

ex. KFNL

KCCA 112150Z AUTO 15007KT 10SM CLR 11/M05 A3046 RMK AO2

11 Dec 2019 21:52

Frequency: 118.725

Phone: 501-745-5000

Other Area AWOS: KCXW - KRUE - KBVX - KSRC

TAF KLRF 111500Z 1115/1221 VRB06KT 9999 SKC QNH3023INS BECMG 1118/1119 19006KT 9999 SKC QNH3039INS TX08/1121Z TNM04/1115Z